Time;durP1;ratioP1;P1;durP2;ratioP2;P2;SDS_P1;SDS_P2;PMS_P1;PMS_P2;Temp;Humidity;BMP_temperature;BMP_pressure;BME280_temperature;BME280_humidity;BME280_pressure;Samples;Min_cycle;Max_cycle;Signal;HPM_P1;HPM_P2
2021/05/18 00:00:32;;;;;;;17.70;10.45;;;13.70;81.20;;;;;;5139888;28;20254;-88
2021/05/18 00:02:58;;;;;;;22.58;12.00;;;13.60;81.20;;;;;;5133885;28;20678;-88
2021/05/18 00:05:27;;;;;;;21.75;13.20;;;13.60;80.80;;;;;;5122939;28;20193;-88
2021/05/18 00:08:03;;;;;;;22.85;11.57;;;13.60;80.60;;;;;;5118967;28;20298;-88
2021/05/18 00:13:17;;;;;;;24.40;11.27;;;13.50;81.00;;;;;;5118519;28;20193;-89
2021/05/18 00:15:45;;;;;;;15.25;11.57;;;13.50;81.30;;;;;;5116965;28;20254;-89
2021/05/18 00:18:11;;;;;;;31.50;11.25;;;13.50;81.40;;;;;;5116634;28;20190;-89
2021/05/18 00:20:38;;;;;;;21.03;11.30;;;13.60;81.10;;;;;;5123254;28;20175;-90
2021/05/18 00:23:07;;;;;;;28.75;12.20;;;13.50;81.40;;;;;;5141039;28;20452;-90
2021/05/18 00:25:33;;;;;;;19.52;11.13;;;13.50;81.40;;;;;;5139894;28;20187;-89
2021/05/18 00:27:59;;;;;;;21.33;9.75;;;13.50;81.40;;;;;;5128366;28;20212;-89
2021/05/18 00:30:25;;;;;;;20.53;11.00;;;13.50;81.30;;;;;;5131318;28;20179;-90
2021/05/18 00:32:51;;;;;;;17.05;10.50;;;13.40;81.30;;;;;;5116188;28;20199;-89
2021/05/18 00:35:18;;;;;;;23.77;10.82;;;13.50;81.50;;;;;;5116642;28;20190;-89
2021/05/18 00:37:44;;;;;;;19.13;10.60;;;13.50;81.50;;;;;;5118031;28;20167;-89
2021/05/18 00:40:14;;;;;;;20.30;11.43;;;13.50;81.10;;;;;;5117226;28;20251;-89
2021/05/18 00:42:49;;;;;;;25.33;12.20;;;13.50;81.00;;;;;;5116409;28;20456;-89
2021/05/18 00:45:16;;;;;;;18.88;12.35;;;13.40;81.10;;;;;;5116221;28;20545;-89
2021/05/18 00:47:42;;;;;;;20.73;12.23;;;13.50;81.40;;;;;;5116625;28;20195;-89
2021/05/18 00:50:10;;;;;;;21.93;12.27;;;13.50;81.40;;;;;;5135260;28;20191;-89
2021/05/18 00:52:37;;;;;;;24.02;13.88;;;13.40;81.40;;;;;;5133440;28;20449;-89
2021/05/18 00:55:06;;;;;;;26.00;11.25;;;13.40;81.30;;;;;;5129735;28;20197;-88
2021/05/18 01:00:18;;;;;;;21.77;11.48;;;13.30;81.50;;;;;;5117324;28;20185;-89
2021/05/18 01:02:47;;;;;;;21.50;11.35;;;13.50;81.60;;;;;;5115551;28;20202;-89
2021/05/18 01:05:20;;;;;;;27.17;11.30;;;13.40;81.40;;;;;;5115764;28;20194;-89
2021/05/18 01:07:49;;;;;;;29.80;10.43;;;13.50;81.30;;;;;;5115651;28;20191;-89
2021/05/18 01:10:16;;;;;;;19.00;11.70;;;13.40;81.30;;;;;;5115310;28;20225;-89
2021/05/18 01:12:42;;;;;;;20.65;11.43;;;13.30;81.50;;;;;;5115234;28;20191;-89
2021/05/18 01:15:11;;;;;;;21.63;11.80;;;13.40;81.60;;;;;;5115497;28;20179;-88
2021/05/18 01:17:37;;;;;;;17.17;9.32;;;13.40;81.40;;;;;;5115616;28;20526;-89
2021/05/18 01:20:09;;;;;;;21.77;10.10;;;13.60;81.40;;;;;;5116823;28;20186;-89
2021/05/18 01:22:34;;;;;;;20.17;11.40;;;13.50;80.80;;;;;;5115145;28;20206;-89
2021/05/18 01:25:00;;;;;;;16.97;10.40;;;13.50;80.90;;;;;;5115341;28;20202;-89
2021/05/18 01:27:26;;;;;;;14.40;10.47;;;13.40;80.80;;;;;;5114875;28;20202;-89
2021/05/18 01:29:52;;;;;;;30.87;11.47;;;13.40;80.90;;;;;;5117389;28;20625;-90
2021/05/18 01:32:22;;;;;;;19.90;9.43;;;13.40;81.00;;;;;;5116212;28;20238;-90
2021/05/18 01:34:48;;;;;;;18.48;10.45;;;13.40;80.80;;;;;;5137773;28;20158;-90
2021/05/18 01:37:14;;;;;;;21.77;11.70;;;13.40;80.70;;;;;;5120315;28;20182;-90
2021/05/18 01:44:52;;;;;;;21.95;10.50;;;13.40;80.60;;;;;;5117413;28;20174;-91
2021/05/18 01:47:18;;;;;;;21.40;11.50;;;13.50;80.10;;;;;;5115939;28;20202;-90
2021/05/18 01:49:43;;;;;;;22.17;10.53;;;13.50;80.20;;;;;;5116160;28;20224;-89
2021/05/18 01:52:09;;;;;;;24.00;11.10;;;13.50;80.20;;;;;;5118029;28;20195;-90
2021/05/18 01:54:36;;;;;;;24.90;12.27;;;13.60;80.00;;;;;;5121939;28;20626;-90
2021/05/18 01:57:18;;;;;;;18.38;11.75;;;13.40;79.80;;;;;;5120673;28;20179;-91
2021/05/18 01:59:45;;;;;;;29.10;12.80;;;13.40;80.10;;;;;;5120268;28;20179;-88
2021/05/18 02:02:12;;;;;;;17.60;9.80;;;13.60;80.40;;;;;;5120738;28;20199;-90
2021/05/18 02:04:54;;;;;;;22.65;10.98;;;13.60;79.20;;;;;;5121401;28;20191;-90
2021/05/18 02:07:23;;;;;;;19.70;10.60;;;13.50;79.60;;;;;;5121649;28;20190;-90
2021/05/18 02:09:49;;;;;;;24.02;10.35;;;13.60;79.70;;;;;;5121647;28;20186;-90
2021/05/18 02:12:15;;;;;;;20.37;10.60;;;13.60;79.20;;;;;;5118781;28;20190;-90
2021/05/18 02:14:43;;;;;;;27.55;13.23;;;13.40;79.30;;;;;;5118334;28;20208;-90
2021/05/18 02:17:27;;;;;;;27.27;11.68;;;13.40;79.40;;;;;;5115599;28;20183;-90
2021/05/18 02:20:09;;;;;;;24.75;12.10;;;13.40;79.60;;;;;;5115363;28;20246;-90
2021/05/18 02:25:21;;;;;;;29.60;10.95;;;13.30;79.60;;;;;;5117809;28;20222;-90
2021/05/18 02:27:47;;;;;;;28.70;12.30;;;13.20;79.50;;;;;;5116497;28;20681;-90
2021/05/18 02:30:14;;;;;;;21.77;13.05;;;13.10;79.80;;;;;;5115443;28;20179;-90
2021/05/18 02:32:40;;;;;;;19.75;10.80;;;13.10;80.00;;;;;;5114347;28;20580;-90
2021/05/18 02:35:09;;;;;;;26.27;14.00;;;13.10;80.10;;;;;;5114853;28;20171;-90
2021/05/18 02:37:38;;;;;;;26.52;13.50;;;13.00;80.20;;;;;;5120134;28;20193;-90
2021/05/18 02:40:18;;;;;;;22.75;12.43;;;13.00;80.30;;;;;;5133075;28;20182;-88
2021/05/18 02:42:45;;;;;;;21.25;12.60;;;13.00;80.40;;;;;;5122001;28;20195;-88
2021/05/18 02:50:59;;;;;;;27.40;14.63;;;13.20;80.60;;;;;;5072286;28;20174;-88
2021/05/18 02:53:25;;;;;;;29.13;12.93;;;13.30;80.80;;;;;;5097314;28;20206;-89
2021/05/18 02:56:02;;;;;;;29.63;12.25;;;13.40;79.90;;;;;;5114268;28;20266;-89
2021/05/18 02:58:31;;;;;;;25.52;15.13;;;13.30;79.90;;;;;;5113959;28;20167;-89
2021/05/18 03:00:57;;;;;;;21.45;13.00;;;13.20;80.10;;;;;;5113540;28;20179;-89
2021/05/18 03:03:22;;;;;;;33.40;13.52;;;13.20;80.30;;;;;;5113654;28;20202;-89
2021/05/18 03:05:48;;;;;;;28.73;12.57;;;13.40;80.00;;;;;;5113719;28;20167;-89
2021/05/18 03:08:14;;;;;;;21.90;13.70;;;13.40;79.30;;;;;;5113862;28;20575;-89
2021/05/18 03:10:40;;;;;;;31.42;14.70;;;13.30;79.40;;;;;;5114760;28;20413;-89
2021/05/18 03:13:06;;;;;;;30.53;13.57;;;13.20;79.70;;;;;;5113561;28;20343;-88
2021/05/18 03:15:33;;;;;;;24.92;12.32;;;13.20;80.10;;;;;;5114934;28;20524;-88
2021/05/18 03:17:59;;;;;;;24.63;15.50;;;13.30;80.30;;;;;;5113409;28;20224;-88
2021/05/18 03:20:25;;;;;;;19.87;12.33;;;13.20;80.20;;;;;;5113311;28;20171;-90
2021/05/18 03:22:52;;;;;;;35.90;16.10;;;13.20;80.30;;;;;;5113874;28;20444;-89
2021/05/18 03:25:18;;;;;;;30.58;15.13;;;13.10;80.20;;;;;;5116656;28;20495;-90
2021/05/18 03:27:44;;;;;;;27.83;15.47;;;13.00;80.30;;;;;;5114511;28;20299;-89
2021/05/18 03:35:40;;;;;;;32.53;15.32;;;12.90;81.10;;;;;;5114542;28;20174;-88
2021/05/18 03:38:20;;;;;;;27.88;15.32;;;12.90;81.20;;;;;;5113104;28;20673;-88
2021/05/18 03:40:55;;;;;;;34.92;16.42;;;13.00;81.20;;;;;;5112777;28;20657;-89
2021/05/18 03:48:40;;;;;;;46.42;15.63;;;12.80;81.40;;;;;;5115322;28;20183;-89
2021/05/18 03:48:53;;;;;;;32.85;16.10;;;12.90;81.60;;;;;;5114719;28;20217;-89
2021/05/18 03:54:14;;;;;;;23.73;14.90;;;13.00;81.30;;;;;;5119299;28;20561;-89
2021/05/18 04:04:56;;;;;;;37.08;15.05;;;12.90;81.00;;;;;;5119208;28;20274;-89
2021/05/18 04:13:04;;;;;;;28.10;14.45;;;12.80;80.80;;;;;;5097095;28;20191;-88
2021/05/18 04:18:18;;;;;;;30.63;13.73;;;12.70;80.60;;;;;;5118176;28;20228;-88
2021/05/18 05:01:31;;;;;;;23.25;14.00;;;13.00;79.40;;;;;;5134399;28;20183;-90
2021/05/18 05:14:20;;;;;;;25.98;12.25;;;13.40;78.10;;;;;;5118990;28;20185;-90
2021/05/18 05:16:46;;;;;;;26.90;11.80;;;13.50;77.70;;;;;;5116884;28;20171;-87
2021/05/18 05:19:12;;;;;;;21.17;10.90;;;13.40;77.40;;;;;;5117372;28;20660;-91
2021/05/18 05:21:38;;;;;;;16.05;11.20;;;13.50;77.30;;;;;;5118846;28;20901;-91
2021/05/18 05:24:04;;;;;;;22.20;9.75;;;13.70;77.10;;;;;;5119317;28;20747;-91
2021/05/18 05:26:31;;;;;;;14.57;10.70;;;13.90;76.50;;;;;;5119934;28;20179;-89
2021/05/18 05:28:57;;;;;;;18.75;11.82;;;14.10;75.80;;;;;;5121313;28;20290;-91
2021/05/18 05:31:23;;;;;;;16.77;11.02;;;14.20;75.00;;;;;;5120434;27;20187;-90
2021/05/18 05:33:49;;;;;;;21.43;11.13;;;14.30;74.40;;;;;;5117040;28;20206;-91
2021/05/18 05:36:15;;;;;;;20.88;11.63;;;14.60;73.70;;;;;;5100532;28;20446;-90
2021/05/18 05:38:41;;;;;;;14.43;9.90;;;14.80;73.00;;;;;;5116629;28;20183;-91
2021/05/18 05:41:07;;;;;;;18.03;9.27;;;15.40;72.00;;;;;;5116984;28;20175;-92
2021/05/18 05:43:33;;;;;;;16.23;8.43;;;15.90;70.40;;;;;;5116810;28;20497;-90
2021/05/18 05:45:58;;;;;;;12.40;8.83;;;16.50;68.60;;;;;;5119845;28;20228;-91
2021/05/18 05:48:24;;;;;;;15.27;8.43;;;17.00;66.30;;;;;;5119241;28;20209;-91
2021/05/18 05:50:50;;;;;;;14.47;8.20;;;17.20;64.40;;;;;;5116438;28;20462;-91
2021/05/18 05:53:16;;;;;;;16.27;8.93;;;17.20;63.40;;;;;;5116467;28;20437;-91
2021/05/18 05:55:42;;;;;;;14.63;8.35;;;17.20;62.50;;;;;;5117580;28;20211;-92
2021/05/18 05:58:09;;;;;;;14.77;8.15;;;17.20;62.20;;;;;;5116156;28;20646;-92
2021/05/18 06:00:35;;;;;;;16.63;7.97;;;17.80;61.80;;;;;;5116823;28;20185;-94
2021/05/18 06:03:00;;;;;;;18.93;8.60;;;17.90;60.70;;;;;;5116780;28;20443;-93
2021/05/18 06:05:26;;;;;;;15.23;8.63;;;18.00;59.90;;;;;;5115973;28;20943;-91
2021/05/18 06:07:55;;;;;;;12.67;8.87;;;17.60;59.90;;;;;;5117738;28;20213;-92
2021/05/18 06:15:38;;;;;;;11.20;8.33;;;16.80;62.20;;;;;;5123455;28;20214;-95
2021/05/18 06:43:05;;;;;;;18.35;12.50;;;15.00;70.00;;;;;;5033158;28;20738;-86
2021/05/18 06:48:15;;;;;;;21.15;16.30;;;14.70;69.20;;;;;;5095306;28;20210;-90
2021/05/18 06:50:41;;;;;;;22.33;15.50;;;14.70;69.20;;;;;;5092871;28;20172;-90
2021/05/18 06:53:07;;;;;;;17.55;14.25;;;14.80;69.20;;;;;;5093155;28;20446;-90
2021/05/18 06:55:36;;;;;;;22.90;16.83;;;14.80;68.80;;;;;;5096657;28;20175;-90
2021/05/18 06:58:08;;;;;;;17.85;15.77;;;14.80;68.50;;;;;;5115410;28;20179;-90
2021/05/18 07:00:37;;;;;;;21.02;17.10;;;15.00;68.40;;;;;;5114857;28;20179;-90
2021/05/18 07:03:06;;;;;;;22.52;15.82;;;15.00;68.20;;;;;;5115978;28;20620;-90
2021/05/18 07:10:35;;;;;;;22.40;18.08;;;15.10;67.40;;;;;;5120489;28;20182;-91
2021/05/18 07:13:01;;;;;;;25.93;18.27;;;15.20;67.30;;;;;;5122957;28;20259;-91
2021/05/18 07:15:28;;;;;;;29.73;20.42;;;15.00;67.00;;;;;;5128849;28;20412;-91
2021/05/18 07:17:58;;;;;;;21.60;17.13;;;14.80;67.20;;;;;;5128441;28;20221;-91
2021/05/18 07:20:24;;;;;;;22.80;18.02;;;14.70;67.70;;;;;;5125290;28;20183;-90
2021/05/18 07:22:52;;;;;;;27.95;19.20;;;14.60;68.10;;;;;;5118090;28;20207;-91
2021/05/18 07:25:18;;;;;;;27.65;20.23;;;14.50;68.60;;;;;;5119000;28;20175;-91
2021/05/18 07:27:44;;;;;;;24.00;18.27;;;14.50;68.70;;;;;;5120022;28;20750;-91
2021/05/18 07:30:11;;;;;;;23.53;19.33;;;14.50;68.80;;;;;;5118565;28;20513;-91
2021/05/18 07:32:37;;;;;;;23.88;18.90;;;14.60;68.80;;;;;;5100664;28;20441;-91
2021/05/18 07:35:05;;;;;;;29.33;21.00;;;14.80;68.70;;;;;;5117613;28;20186;-91
2021/05/18 07:37:31;;;;;;;30.77;22.80;;;14.90;68.60;;;;;;5118075;28;20266;-91
2021/05/18 07:39:57;;;;;;;31.08;21.30;;;14.90;68.30;;;;;;5118942;28;20213;-91
2021/05/18 07:42:22;;;;;;;30.77;21.40;;;14.80;68.10;;;;;;5118339;28;20195;-92
2021/05/18 07:44:48;;;;;;;30.90;22.90;;;14.70;68.40;;;;;;5118779;28;20650;-90
2021/05/18 07:47:15;;;;;;;38.00;24.83;;;14.80;68.40;;;;;;5118970;28;20416;-91
2021/05/18 07:49:47;;;;;;;37.95;24.27;;;15.00;68.50;;;;;;5119787;28;20420;-91
2021/05/18 08:00:52;;;;;;;33.17;23.75;;;15.40;65.80;;;;;;5099387;28;20171;-91
2021/05/18 08:05:51;;;;;;;32.70;22.35;;;15.70;66.30;;;;;;5100148;28;20182;-90
2021/05/18 08:08:18;;;;;;;29.75;22.40;;;16.10;64.40;;;;;;5099378;28;20547;-90
2021/05/18 08:13:10;;;;;;;21.60;17.98;;;16.60;63.00;;;;;;5100031;28;20199;-90
2021/05/18 10:23:14;;;;;;;3.72;2.33;;;17.30;49.90;;;;;;5117223;28;20210;-91
2021/05/18 10:35:55;;;;;;;2.78;2.53;;;16.50;51.50;;;;;;5119853;28;20171;-92
2021/05/18 10:38:35;;;;;;;4.30;2.70;;;16.30;51.30;;;;;;5122517;28;20194;-91
2021/05/18 10:41:18;;;;;;;4.70;2.65;;;16.30;51.30;;;;;;5124223;28;20171;-92
2021/05/18 10:43:58;;;;;;;5.13;2.08;;;16.40;50.70;;;;;;5133949;28;20202;-91
2021/05/18 10:46:28;;;;;;;2.53;2.25;;;16.50;50.00;;;;;;5133133;28;20179;-91
2021/05/18 10:48:56;;;;;;;2.60;2.17;;;16.60;49.30;;;;;;5128215;28;20211;-91
2021/05/18 10:51:45;;;;;;;3.60;1.90;;;16.90;49.50;;;;;;5130005;28;20213;-92
2021/05/18 10:54:24;;;;;;;6.32;2.85;;;17.10;49.10;;;;;;5134939;28;20171;-91
2021/05/18 10:56:53;;;;;;;6.55;3.08;;;17.00;49.70;;;;;;5135858;28;20179;-92
2021/05/18 10:59:41;;;;;;;4.50;2.50;;;16.70;49.20;;;;;;5134801;28;20194;-92
2021/05/18 11:02:14;;;;;;;3.85;2.55;;;16.60;50.00;;;;;;5126567;28;20197;-91
2021/05/18 11:04:52;;;;;;;2.75;2.53;;;16.50;49.40;;;;;;5138749;28;20238;-91
2021/05/18 11:07:20;;;;;;;4.68;1.95;;;16.30;49.00;;;;;;5139047;28;20174;-92
2021/05/18 11:09:47;;;;;;;3.30;1.70;;;16.30;49.60;;;;;;5133096;28;20215;-91
2021/05/18 11:12:20;;;;;;;2.20;2.00;;;16.10;49.50;;;;;;5130186;28;20203;-91
2021/05/18 11:15:08;;;;;;;2.45;2.05;;;16.10;49.70;;;;;;5129136;28;20190;-91
2021/05/18 11:17:36;;;;;;;2.70;1.85;;;16.10;49.80;;;;;;5125590;28;20265;-92
2021/05/18 11:20:09;;;;;;;2.55;1.80;;;16.10;48.60;;;;;;5124416;28;20196;-91
2021/05/18 11:25:35;;;;;;;2.45;1.92;;;16.70;48.70;;;;;;5126337;28;20159;-91
2021/05/18 11:28:08;;;;;;;2.47;1.40;;;16.70;47.90;;;;;;5123524;28;20229;-93
2021/05/18 11:30:34;;;;;;;3.03;2.03;;;16.70;47.40;;;;;;5124668;28;20537;-91
2021/05/18 11:33:00;;;;;;;2.27;1.57;;;16.60;47.40;;;;;;5130086;28;20250;-92
2021/05/18 11:35:26;;;;;;;2.07;1.50;;;16.50;47.90;;;;;;5136264;28;20919;-92
2021/05/18 11:38:12;;;;;;;4.13;2.23;;;16.40;47.70;;;;;;5140457;28;20193;-92
2021/05/18 11:40:50;;;;;;;5.63;2.20;;;16.60;48.40;;;;;;5126611;28;20191;-92
2021/05/18 11:43:24;;;;;;;2.50;1.60;;;16.80;48.10;;;;;;5121655;28;20203;-89
2021/05/18 11:46:13;;;;;;;3.85;1.80;;;16.80;48.00;;;;;;5120993;28;20257;-88
2021/05/18 11:48:52;;;;;;;1.70;1.60;;;16.70;48.10;;;;;;5119334;28;20251;-87
2021/05/18 11:51:18;;;;;;;2.38;1.55;;;16.50;47.40;;;;;;5124174;28;20167;-85
2021/05/18 11:53:46;;;;;;;5.10;1.97;;;16.60;47.70;;;;;;5127956;28;20198;-87
2021/05/18 11:56:32;;;;;;;2.08;1.67;;;16.80;47.90;;;;;;5121791;28;20175;-85
2021/05/18 11:59:00;;;;;;;2.40;1.45;;;16.80;46.90;;;;;;5119788;28;20630;-86
2021/05/18 12:01:27;;;;;;;1.60;1.50;;;16.70;47.60;;;;;;5119211;28;20183;-87
2021/05/18 12:04:01;;;;;;;4.70;1.83;;;16.60;47.60;;;;;;5123975;28;20211;-85
2021/05/18 12:06:27;;;;;;;2.20;1.67;;;16.70;46.30;;;;;;5122367;28;20212;-86
2021/05/18 12:08:57;;;;;;;1.40;1.30;;;16.70;45.80;;;;;;5120283;28;20203;-87
2021/05/18 12:11:24;;;;;;;1.35;1.25;;;17.00;46.20;;;;;;5117245;28;20943;-87
2021/05/18 12:13:52;;;;;;;1.70;1.30;;;17.20;46.00;;;;;;5120169;28;20191;-87
2021/05/18 12:16:23;;;;;;;2.10;1.42;;;17.30;46.10;;;;;;5121986;28;20175;-85
2021/05/18 12:18:57;;;;;;;5.07;1.30;;;17.20;45.80;;;;;;5121126;28;20760;-84
2021/05/18 12:21:26;;;;;;;1.38;1.27;;;17.00;45.50;;;;;;5120389;28;20174;-85
2021/05/18 12:24:23;;;;;;;3.90;1.30;;;17.00;45.20;;;;;;5122658;28;20203;-84
2021/05/18 12:26:52;;;;;;;5.03;1.50;;;17.40;45.70;;;;;;5117743;28;20179;-85
2021/05/18 12:29:43;;;;;;;2.03;1.20;;;17.50;44.90;;;;;;5129325;28;20211;-85
2021/05/18 12:32:39;;;;;;;2.60;1.08;;;17.00;42.00;;;;;;5136473;28;20198;-85
2021/05/18 12:35:05;;;;;;;6.15;1.15;;;16.80;42.70;;;;;;5137644;28;20163;-86
2021/05/18 12:37:45;;;;;;;2.03;1.23;;;16.60;43.40;;;;;;5123855;28;20657;-86
2021/05/18 12:40:15;;;;;;;1.38;1.10;;;16.70;43.80;;;;;;5117747;28;20159;-85
2021/05/18 12:42:43;;;;;;;4.25;1.10;;;16.80;42.80;;;;;;5117387;28;20195;-86
2021/05/18 12:45:20;;;;;;;2.38;0.95;;;16.80;42.30;;;;;;5118057;28;20185;-87
2021/05/18 12:48:00;;;;;;;1.48;1.17;;;16.90;42.50;;;;;;5117286;28;20201;-88
2021/05/18 12:50:47;;;;;;;1.08;0.85;;;16.90;42.70;;;;;;5121642;28;20232;-88
2021/05/18 12:53:27;;;;;;;1.40;1.15;;;16.80;41.60;;;;;;5121511;28;20262;-86
2021/05/18 12:55:54;;;;;;;1.35;1.20;;;16.70;41.30;;;;;;5123330;28;20232;-87
2021/05/18 12:58:31;;;;;;;2.45;1.00;;;16.70;41.60;;;;;;5136723;28;20196;-87
2021/05/18 13:01:06;;;;;;;3.55;1.02;;;16.70;42.20;;;;;;5130462;28;20584;-85
2021/05/18 13:03:32;;;;;;;1.50;1.17;;;16.70;43.10;;;;;;5117491;28;20210;-86
2021/05/18 13:05:58;;;;;;;2.83;1.03;;;16.90;43.20;;;;;;5116988;28;20304;-86
2021/05/18 13:08:33;;;;;;;2.92;1.33;;;16.70;42.50;;;;;;5125610;28;20202;-84
2021/05/18 13:13:44;;;;;;;2.53;1.40;;;16.50;42.00;;;;;;5119971;28;20202;-85
2021/05/18 13:16:19;;;;;;;5.15;1.52;;;16.50;42.70;;;;;;5117486;28;20174;-85
2021/05/18 13:19:00;;;;;;;1.75;1.10;;;16.70;43.10;;;;;;5117680;28;20194;-86
2021/05/18 13:21:38;;;;;;;1.10;0.95;;;17.00;42.50;;;;;;5116152;28;20175;-87
2021/05/18 13:26:34;;;;;;;2.55;1.45;;;17.30;41.40;;;;;;5118235;28;20666;-86
2021/05/18 13:29:08;;;;;;;4.72;1.30;;;17.50;41.90;;;;;;5117524;28;20241;-87
2021/05/18 13:31:37;;;;;;;1.75;1.10;;;17.50;41.40;;;;;;5116097;28;20626;-88
2021/05/18 13:34:03;;;;;;;2.33;1.58;;;17.50;41.20;;;;;;5120970;28;20635;-85
2021/05/18 13:36:35;;;;;;;3.83;1.70;;;17.50;40.80;;;;;;5117693;28;20228;-85
2021/05/18 13:39:06;;;;;;;3.72;1.30;;;17.60;41.00;;;;;;5118630;28;20251;-86
2021/05/18 13:41:33;;;;;;;2.22;1.20;;;17.80;41.60;;;;;;5139264;28;20165;-88
2021/05/18 13:44:00;;;;;;;2.35;1.42;;;17.90;41.80;;;;;;5112897;28;20502;-84
2021/05/18 13:46:25;;;;;;;1.75;1.10;;;17.80;41.50;;;;;;5104985;28;20248;-87
2021/05/18 13:48:51;;;;;;;6.53;1.40;;;18.00;41.90;;;;;;5106934;28;20609;-86
2021/05/18 13:51:17;;;;;;;5.60;1.27;;;18.00;40.10;;;;;;5115783;28;20206;-86
2021/05/18 13:53:44;;;;;;;1.83;1.50;;;17.90;41.00;;;;;;5115115;28;20187;-86
2021/05/18 13:56:10;;;;;;;1.02;0.90;;;18.00;42.20;;;;;;5115996;28;20626;-86
2021/05/18 13:58:36;;;;;;;1.17;1.02;;;18.10;42.10;;;;;;5115087;28;20183;-86
2021/05/18 14:01:07;;;;;;;2.42;1.35;;;18.10;41.50;;;;;;5115629;28;20194;-87
2021/05/18 14:03:34;;;;;;;2.35;1.40;;;18.10;41.10;;;;;;5114796;28;20644;-87
2021/05/18 14:06:01;;;;;;;1.60;1.30;;;18.00;40.80;;;;;;5114561;28;20179;-86
2021/05/18 14:08:47;;;;;;;3.92;1.33;;;18.00;41.10;;;;;;5115660;28;20199;-86
2021/05/18 14:11:20;;;;;;;2.15;1.63;;;18.00;41.90;;;;;;5115845;28;20290;-86
2021/05/18 14:13:55;;;;;;;2.05;1.73;;;18.20;42.50;;;;;;5117141;28;20191;-87
2021/05/18 14:16:22;;;;;;;3.75;1.30;;;18.20;43.00;;;;;;5115920;28;20175;-86
2021/05/18 14:18:58;;;;;;;1.77;1.35;;;18.20;42.00;;;;;;5112532;28;20171;-86
2021/05/18 14:21:25;;;;;;;2.22;1.38;;;18.20;41.70;;;;;;5115027;28;20224;-85
2021/05/18 14:26:35;;;;;;;1.40;1.20;;;18.40;42.10;;;;;;5119844;28;20203;-85
2021/05/18 14:29:01;;;;;;;2.38;2.03;;;18.30;41.30;;;;;;5120563;28;20274;-84
2021/05/18 14:31:26;;;;;;;1.30;1.10;;;17.80;42.20;;;;;;5120098;28;20198;-84
2021/05/18 14:33:52;;;;;;;4.80;1.23;;;17.90;43.20;;;;;;5119856;28;20201;-85
2021/05/18 14:36:18;;;;;;;2.57;1.50;;;17.90;42.40;;;;;;5118289;28;20179;-85
2021/05/18 14:38:46;;;;;;;9.10;1.70;;;17.70;42.40;;;;;;5115616;28;20357;-86
2021/05/18 14:54:40;;;;;;;3.30;1.50;;;18.20;42.40;;;;;;5116674;28;20177;-86
2021/05/18 14:56:57;;;;;;;2.10;1.45;;;18.20;41.20;;;;;;5115934;27;20665;-85
2021/05/18 14:59:22;;;;;;;3.97;1.77;;;18.20;40.30;;;;;;5115769;28;20183;-87
2021/05/18 15:01:49;;;;;;;2.87;1.53;;;18.40;42.30;;;;;;5114941;28;20300;-86
2021/05/18 15:04:15;;;;;;;2.33;1.50;;;18.50;42.30;;;;;;5114007;28;20186;-87
2021/05/18 15:06:41;;;;;;;2.63;1.27;;;18.60;44.20;;;;;;5114018;28;20622;-87
2021/05/18 15:09:08;;;;;;;2.30;1.13;;;18.30;40.40;;;;;;5116526;28;20205;-85
2021/05/18 15:11:34;;;;;;;3.20;2.00;;;18.10;41.80;;;;;;5115583;28;20182;-85
2021/05/18 15:14:00;;;;;;;5.93;1.50;;;18.20;42.10;;;;;;5116112;28;20195;-85
2021/05/18 15:16:26;;;;;;;2.20;1.90;;;18.10;42.20;;;;;;5115944;28;20606;-85
2021/05/18 15:18:53;;;;;;;2.93;1.83;;;18.00;42.70;;;;;;5115435;28;20537;-86
2021/05/18 15:21:20;;;;;;;2.15;1.65;;;18.20;43.30;;;;;;5115012;28;20595;-85
2021/05/18 15:23:46;;;;;;;2.42;1.35;;;18.20;43.20;;;;;;5117344;28;20202;-85
2021/05/18 15:26:13;;;;;;;1.57;1.47;;;18.30;43.60;;;;;;5116081;28;20226;-85
2021/05/18 15:28:42;;;;;;;2.90;1.80;;;18.20;43.00;;;;;;5115823;28;21003;-85
2021/05/18 15:31:08;;;;;;;1.60;1.40;;;18.20;43.00;;;;;;5116002;28;20178;-85
2021/05/18 15:33:34;;;;;;;2.35;1.17;;;18.10;43.40;;;;;;5116156;28;20203;-85
2021/05/18 15:36:02;;;;;;;1.63;1.53;;;18.10;42.90;;;;;;5116960;28;20175;-87
2021/05/18 15:38:29;;;;;;;1.42;1.30;;;18.10;42.10;;;;;;5114820;28;20470;-86
2021/05/18 15:40:55;;;;;;;1.70;1.48;;;17.80;40.70;;;;;;5115273;28;20175;-87
2021/05/18 15:43:24;;;;;;;2.40;1.88;;;17.50;41.10;;;;;;5115664;28;20725;-85
2021/05/18 15:45:49;;;;;;;1.15;1.05;;;17.50;42.20;;;;;;5116802;28;20184;-87
2021/05/18 15:48:15;;;;;;;1.30;1.20;;;17.60;41.60;;;;;;5120497;28;20195;-86
2021/05/18 15:50:41;;;;;;;1.80;1.70;;;17.40;40.80;;;;;;5120546;28;20183;-85
2021/05/18 15:53:06;;;;;;;2.77;2.03;;;17.50;41.80;;;;;;5121906;28;20278;-84
2021/05/18 15:55:34;;;;;;;1.93;1.63;;;17.30;43.20;;;;;;5111849;28;21078;-84
2021/05/18 15:57:59;;;;;;;4.72;1.60;;;17.30;44.90;;;;;;5118418;28;20171;-86
2021/05/18 16:00:25;;;;;;;1.83;1.23;;;17.20;44.70;;;;;;5117811;28;20270;-84
2021/05/18 16:02:51;;;;;;;4.00;1.10;;;17.20;43.80;;;;;;5122846;28;20270;-82
2021/05/18 16:05:17;;;;;;;1.10;1.00;;;17.10;39.30;;;;;;5123752;28;20231;-82
2021/05/18 16:07:44;;;;;;;4.60;1.20;;;17.00;39.20;;;;;;5125240;28;20183;-83
2021/05/18 16:10:10;;;;;;;1.40;1.10;;;17.00;38.70;;;;;;5129088;28;20559;-82
2021/05/18 16:12:36;;;;;;;4.33;1.20;;;17.10;43.00;;;;;;5130499;28;20199;-82
2021/05/18 16:15:02;;;;;;;1.57;1.43;;;17.20;42.40;;;;;;5123555;28;20319;-83
2021/05/18 16:17:28;;;;;;;4.20;1.30;;;17.20;41.70;;;;;;5122551;28;20201;-82
2021/05/18 16:19:54;;;;;;;3.10;1.20;;;17.20;43.20;;;;;;5123264;28;20273;-82
2021/05/18 16:22:19;;;;;;;1.20;1.10;;;17.20;42.00;;;;;;5124247;28;20195;-82
2021/05/18 16:24:45;;;;;;;2.30;1.30;;;17.30;41.70;;;;;;5132450;28;20413;-82
2021/05/18 16:27:14;;;;;;;1.93;1.37;;;17.30;41.00;;;;;;5135907;28;20247;-83
2021/05/18 16:29:41;;;;;;;1.90;1.35;;;17.30;40.60;;;;;;5129353;28;20198;-83
2021/05/18 16:32:08;;;;;;;3.03;1.63;;;17.30;41.10;;;;;;5123612;27;20278;-83
2021/05/18 16:34:34;;;;;;;2.20;2.00;;;17.20;40.20;;;;;;5123049;28;20170;-83
2021/05/18 16:37:00;;;;;;;2.00;1.60;;;17.00;40.80;;;;;;5123960;28;20179;-84
2021/05/18 16:39:26;;;;;;;1.75;1.63;;;17.00;41.70;;;;;;5121531;28;20433;-83
2021/05/18 16:41:56;;;;;;;2.20;1.30;;;17.00;41.90;;;;;;5120940;28;20175;-85
2021/05/18 16:44:23;;;;;;;2.45;1.52;;;16.90;42.50;;;;;;5121697;28;20280;-84
2021/05/18 16:46:50;;;;;;;1.98;1.30;;;16.90;43.80;;;;;;5120390;28;20175;-85
2021/05/18 16:49:16;;;;;;;1.63;1.20;;;17.00;43.30;;;;;;5120134;28;20199;-86
2021/05/18 16:51:43;;;;;;;2.28;1.67;;;16.90;42.50;;;;;;5131068;28;20193;-85
2021/05/18 16:54:11;;;;;;;1.48;1.20;;;16.90;42.70;;;;;;5137415;28;20259;-84
2021/05/18 16:56:38;;;;;;;1.85;1.40;;;16.90;42.90;;;;;;5118630;28;20172;-88
2021/05/18 16:59:05;;;;;;;1.40;1.30;;;16.90;43.70;;;;;;5120309;28;20171;-88
2021/05/18 17:01:31;;;;;;;1.75;1.42;;;16.80;42.90;;;;;;5117861;28;20233;-88
2021/05/18 17:03:56;;;;;;;4.17;1.30;;;16.80;42.70;;;;;;5101134;28;20219;-88
2021/05/18 17:06:22;;;;;;;1.50;1.40;;;16.70;42.30;;;;;;5097592;28;20188;-88
2021/05/18 17:08:48;;;;;;;1.30;1.20;;;16.80;42.10;;;;;;5099566;28;20228;-89
2021/05/18 17:11:14;;;;;;;5.07;1.80;;;16.90;41.10;;;;;;5095809;28;20538;-89
2021/05/18 17:13:40;;;;;;;1.50;1.40;;;16.80;40.80;;;;;;5096404;28;20430;-89
2021/05/18 17:16:06;;;;;;;1.98;1.15;;;16.80;41.80;;;;;;5097350;28;20258;-87
2021/05/18 17:18:32;;;;;;;3.78;1.17;;;16.90;41.10;;;;;;5105808;28;20194;-86
2021/05/18 17:20:58;;;;;;;1.70;1.60;;;16.90;40.90;;;;;;5123862;28;20174;-84
2021/05/18 17:23:24;;;;;;;1.67;1.37;;;17.00;41.10;;;;;;5121265;28;20225;-85
2021/05/18 17:25:50;;;;;;;3.35;1.00;;;16.90;40.50;;;;;;5123625;28;20412;-86
2021/05/18 17:28:16;;;;;;;1.30;1.00;;;16.80;40.40;;;;;;5123048;28;20206;-84
2021/05/18 17:30:42;;;;;;;1.80;1.43;;;16.80;40.60;;;;;;5114875;28;20172;-85
2021/05/18 17:33:11;;;;;;;1.30;1.05;;;16.70;41.20;;;;;;5115017;28;20191;-86
2021/05/18 17:35:38;;;;;;;3.05;1.70;;;16.70;41.10;;;;;;5100700;28;20176;-85
2021/05/18 17:38:04;;;;;;;2.25;2.05;;;16.70;40.40;;;;;;5098617;28;20195;-88
2021/05/18 17:40:30;;;;;;;1.50;1.40;;;16.80;40.40;;;;;;5096717;28;20205;-88
2021/05/18 17:42:56;;;;;;;2.45;1.48;;;16.80;40.40;;;;;;5098093;28;20437;-89
2021/05/18 17:45:22;;;;;;;1.83;1.20;;;16.70;40.50;;;;;;5096724;28;20690;-88
2021/05/18 17:47:48;;;;;;;1.60;1.30;;;16.70;40.90;;;;;;5097180;28;20175;-88
2021/05/18 17:50:15;;;;;;;3.27;1.50;;;16.70;41.40;;;;;;5099577;28;20410;-86
2021/05/18 17:52:42;;;;;;;1.98;1.45;;;16.60;41.30;;;;;;5100330;28;20199;-85
2021/05/18 17:55:10;;;;;;;1.20;1.10;;;16.60;42.00;;;;;;5101296;28;20175;-85
2021/05/18 17:57:36;;;;;;;2.38;1.02;;;16.50;42.60;;;;;;5101596;28;20183;-82